首页
METAR-TAF:

METAR-TAF

机场 :

毕尔巴鄂, 西班牙

纬度: 43-18N, 经度: 002-56W, 海拔: 42米

当前天气观测

该预报发布于15分钟前的19:30 UTC
风速2节,风向多变
温度 9°C
湿度 76%
气压 1035 hPa
能见度10公里或以上
少量云层高于3000英尺

METAR: LEBB 181930Z VRB02KT 9999 FEW030 09/05 Q1035 NOSIG

时间: 20:45 (19:45 UTC)

预报

该预报发布于2小时和45分钟前的17:00 UTC
预报有效从18日的 18点(UTC)到 19日的 18点(UTC)
风速5节,风向多变
能见度10公里或以上
少量云层高于2500英尺
几率 30% :
短暂存在
从 19日的 03点(UTC)到 19日的 09点(UTC)
能見度: 3000
小雨, 毛毛雨, 轻雾

TAF: LEBB 181700Z 1818/1918 VRB05KT 9999 FEW025 TX16/1915Z TN04/1902Z PROB30 TEMPO 1903/1909 3000 -RADZ BR

超过4000个机场的气象观测和天气预报(METAR&TAF报告)。

可查询的气象台以黄色和红色小点在地图上表示。

将鼠标移到小点上方,可查看气象台名称。

然后点击查看天气观测和预报。

如需切换地图:点击带黑十字的绿色按钮放大地图;点击带横线的绿色按钮缩小地图;或者点击绿色箭头查看邻近地区的地图。


METAR-TAF: